PWSweather.com
Personal Weather Stations
Station Observations
SEVNO44
Sevno, PrimskovoSI 1276

SevnoPrimskovoSI 1276

Lat: 45.9796285, Lon: 14.924044999999978

Elevation: 1706.0368

Station Type: WS-2307

Latest ConditionsUpdated 7:35:00 AM GMT+01:01 Friday, May 24, 2019
Currently Today's Max Today's Min Today's Average
Temperature 55.2°F12.9°C 57.0°F13.9°C 51.6°F10.9°C 53.4°F11.9°C
Dew Point 48.8°F9.3°C 49.2°F9.6°C 45.2°F7.3°C 46.7°F8.2°C
Winds 1.3 mph SSE2.1 kmh SSE 1.8 mph -2.9 kmh - - 0.5 mph 0.8 kmh
Wind Gusts 3.4 mph5.5 kmh 6.0 mph9.7 kmh - -
Humidity 79% 81% 75% 78%
Pressure 29.98 in1015.2 mb 30.00 in1015.9 mb 29.98 in1015.2 mb -
Hour Temp Dew Point Humidity Winds Wind Gusts Pressure Precip Precip Rate Daily Precip Total
07:35 AM 55.2°F12.9°C 48.8°F9.3°C 79% 1.3 mph SSE2.1 kmh SSE 3.4 mph5.5 kmh 29.98 in1015.2 mb 0.00 in0.0 mm 0.00 in0.0 mm 0.00 in0.0 mm
07:30 AM 54.7°F12.6°C 48.3°F9.1°C 79% 1.4 mph SE2.3 kmh SE 3.8 mph6.1 kmh 29.98 in1015.2 mb 0.00 in0.0 mm 0.00 in0.0 mm 0.00 in0.0 mm
07:25 AM 54.3°F12.4°C 48.3°F9.1°C 80% 1.0 mph SE1.6 kmh SE 3.8 mph6.1 kmh 29.98 in1015.2 mb 0.00 in0.0 mm 0.00 in0.0 mm 0.00 in0.0 mm
07:20 AM 54.1°F12.3°C 48.1°F8.9°C 80% 0.4 mph SE0.6 kmh SE 2.0 mph3.2 kmh 29.98 in1015.2 mb 0.00 in0.0 mm 0.00 in0.0 mm 0.00 in0.0 mm
07:15 AM 53.8°F12.1°C 47.8°F8.8°C 80% 0.6 mph SE1.0 kmh SE 2.2 mph3.5 kmh 29.98 in1015.2 mb 0.00 in0.0 mm 0.00 in0.0 mm 0.00 in0.0 mm
07:10 AM 53.6°F12.0°C 47.6°F8.7°C 80% 0.5 mph SE0.8 kmh SE 2.2 mph3.5 kmh 29.98 in1015.2 mb 0.00 in0.0 mm 0.00 in0.0 mm 0.00 in0.0 mm
07:05 AM 53.4°F11.9°C 47.4°F8.6°C 80% 0.2 mph S0.3 kmh S 2.0 mph3.2 kmh 29.98 in1015.2 mb 0.00 in0.0 mm 0.00 in0.0 mm 0.00 in0.0 mm
07:00 AM 53.2°F11.8°C 47.2°F8.4°C 80% Calm Calm 1.1 mph1.8 kmh 29.98 in1015.2 mb 0.00 in0.0 mm 0.00 in0.0 mm 0.00 in0.0 mm
06:55 AM 53.2°F11.8°C 47.2°F8.4°C 80% Calm Calm -- 29.98 in1015.2 mb 0.00 in0.0 mm 0.00 in0.0 mm 0.00 in0.0 mm
06:50 AM 52.9°F11.6°C 46.9°F8.3°C 80% Calm Calm -- 29.98 in1015.2 mb 0.00 in0.0 mm 0.00 in0.0 mm 0.00 in0.0 mm
06:45 AM 52.9°F11.6°C 46.9°F8.3°C 80% 0.4 mph WNW0.6 kmh WNW 1.8 mph2.9 kmh 29.98 in1015.2 mb 0.00 in0.0 mm 0.00 in0.0 mm 0.00 in0.0 mm
06:40 AM 52.7°F11.5°C 46.7°F8.2°C 80% 0.4 mph WNW0.6 kmh WNW 1.8 mph2.9 kmh 29.98 in1015.2 mb 0.00 in0.0 mm 0.00 in0.0 mm 0.00 in0.0 mm
06:35 AM 52.5°F11.4°C 46.5°F8.1°C 80% 0.1 mph WNW0.2 kmh WNW 1.6 mph2.6 kmh 29.98 in1015.2 mb 0.00 in0.0 mm 0.00 in0.0 mm 0.00 in0.0 mm
06:30 AM 52.5°F11.4°C 46.9°F8.3°C 81% 0.2 mph WNW0.3 kmh WNW 2.0 mph3.2 kmh 29.98 in1015.2 mb 0.00 in0.0 mm 0.00 in0.0 mm 0.00 in0.0 mm
06:25 AM 52.3°F11.3°C 46.7°F8.2°C 81% 0.4 mph WNW0.6 kmh WNW 2.0 mph3.2 kmh 29.98 in1015.2 mb 0.00 in0.0 mm 0.00 in0.0 mm 0.00 in0.0 mm
06:20 AM 52.3°F11.3°C 46.7°F8.2°C 81% 0.6 mph W1.0 kmh W 2.9 mph4.7 kmh 29.98 in1015.2 mb 0.00 in0.0 mm 0.00 in0.0 mm 0.00 in0.0 mm
06:15 AM 52.3°F11.3°C 46.7°F8.2°C 81% 0.4 mph W0.6 kmh W 2.9 mph4.7 kmh 29.98 in1015.2 mb 0.00 in0.0 mm 0.00 in0.0 mm 0.00 in0.0 mm
06:10 AM 52.3°F11.3°C 46.7°F8.2°C 81% Calm Calm 1.1 mph1.8 kmh 29.98 in1015.2 mb 0.00 in0.0 mm 0.00 in0.0 mm 0.00 in0.0 mm
06:05 AM 52.2°F11.2°C 46.5°F8.1°C 81% 0.1 mph WNW0.2 kmh WNW 1.6 mph2.6 kmh 29.98 in1015.2 mb 0.00 in0.0 mm 0.00 in0.0 mm 0.00 in0.0 mm
06:00 AM 52.0°F11.1°C 46.0°F7.8°C 80% 0.2 mph WSW0.3 kmh WSW 1.6 mph2.6 kmh 29.98 in1015.2 mb 0.00 in0.0 mm 0.00 in0.0 mm 0.00 in0.0 mm
05:55 AM 52.0°F11.1°C 46.0°F7.8°C 80% 0.1 mph SW0.2 kmh SW 1.6 mph2.6 kmh 29.98 in1015.2 mb 0.00 in0.0 mm 0.00 in0.0 mm 0.00 in0.0 mm
05:50 AM 51.8°F11.0°C 45.8°F7.7°C 80% 0.1 mph WNW0.2 kmh WNW 1.3 mph2.1 kmh 29.98 in1015.2 mb 0.00 in0.0 mm 0.00 in0.0 mm 0.00 in0.0 mm
05:45 AM 51.6°F10.9°C 45.7°F7.6°C 80% 0.2 mph WNW0.3 kmh WNW 1.6 mph2.6 kmh 29.98 in1015.2 mb 0.00 in0.0 mm 0.00 in0.0 mm 0.00 in0.0 mm
05:40 AM 51.6°F10.9°C 45.7°F7.6°C 80% 0.2 mph NW0.3 kmh NW 1.6 mph2.6 kmh 29.98 in1015.2 mb 0.00 in0.0 mm 0.00 in0.0 mm 0.00 in0.0 mm
05:35 AM 51.6°F10.9°C 45.7°F7.6°C 80% 0.2 mph NNW0.3 kmh NNW 1.3 mph2.1 kmh 29.98 in1015.2 mb 0.00 in0.0 mm 0.00 in0.0 mm 0.00 in0.0 mm
05:30 AM 51.6°F10.9°C 45.7°F7.6°C 80% 0.1 mph N0.2 kmh N 1.3 mph2.1 kmh 29.98 in1015.2 mb 0.00 in0.0 mm 0.00 in0.0 mm 0.00 in0.0 mm
05:25 AM 51.6°F10.9°C 45.3°F7.4°C 79% 0.2 mph NNE0.3 kmh NNE 1.1 mph1.8 kmh 29.98 in1015.2 mb 0.00 in0.0 mm 0.00 in0.0 mm 0.00 in0.0 mm
05:20 AM 51.6°F10.9°C 45.3°F7.4°C 79% 0.5 mph NNE0.8 kmh NNE 1.3 mph2.1 kmh 29.98 in1015.2 mb 0.00 in0.0 mm 0.00 in0.0 mm 0.00 in0.0 mm
05:15 AM 51.6°F10.9°C 45.3°F7.4°C 79% 0.5 mph NNE0.8 kmh NNE 1.3 mph2.1 kmh 29.98 in1015.2 mb 0.00 in0.0 mm 0.00 in0.0 mm 0.00 in0.0 mm
05:10 AM 51.6°F10.9°C 45.3°F7.4°C 79% 0.5 mph NNE0.8 kmh NNE 1.3 mph2.1 kmh 29.98 in1015.2 mb 0.00 in0.0 mm 0.00 in0.0 mm 0.00 in0.0 mm
05:05 AM 51.6°F10.9°C 45.3°F7.4°C 79% 0.6 mph NNE1.0 kmh NNE 1.6 mph2.6 kmh 29.98 in1015.2 mb 0.00 in0.0 mm 0.00 in0.0 mm 0.00 in0.0 mm
05:00 AM 51.6°F10.9°C 45.3°F7.4°C 79% 0.5 mph NNE0.8 kmh NNE 1.6 mph2.6 kmh 29.98 in1015.2 mb 0.00 in0.0 mm 0.00 in0.0 mm 0.00 in0.0 mm
04:55 AM 51.6°F10.9°C 45.3°F7.4°C 79% 0.3 mph N0.5 kmh N 1.3 mph2.1 kmh 29.98 in1015.2 mb 0.00 in0.0 mm 0.00 in0.0 mm 0.00 in0.0 mm
04:50 AM 51.6°F10.9°C 45.3°F7.4°C 79% 0.3 mph NNE0.5 kmh NNE 1.1 mph1.8 kmh 29.98 in1015.2 mb 0.00 in0.0 mm 0.00 in0.0 mm 0.00 in0.0 mm
04:45 AM 51.8°F11.0°C 45.5°F7.5°C 79% 0.4 mph NNE0.6 kmh NNE 1.3 mph2.1 kmh 29.98 in1015.2 mb 0.00 in0.0 mm 0.00 in0.0 mm 0.00 in0.0 mm
04:40 AM 52.0°F11.1°C 45.7°F7.6°C 79% 0.4 mph NNE0.6 kmh NNE 1.3 mph2.1 kmh 29.98 in1015.2 mb 0.00 in0.0 mm 0.00 in0.0 mm 0.00 in0.0 mm
04:35 AM 52.0°F11.1°C 45.3°F7.4°C 78% 0.5 mph NNE0.8 kmh NNE 1.3 mph2.1 kmh 29.98 in1015.2 mb 0.00 in0.0 mm 0.00 in0.0 mm 0.00 in0.0 mm
04:30 AM 52.0°F11.1°C 45.3°F7.4°C 78% 0.5 mph NNE0.8 kmh NNE 1.3 mph2.1 kmh 29.98 in1015.2 mb 0.00 in0.0 mm 0.00 in0.0 mm 0.00 in0.0 mm
04:25 AM 52.2°F11.2°C 45.5°F7.5°C 78% 0.4 mph NNE0.6 kmh NNE 1.3 mph2.1 kmh 29.98 in1015.2 mb 0.00 in0.0 mm 0.00 in0.0 mm 0.00 in0.0 mm
04:20 AM 52.2°F11.2°C 45.5°F7.5°C 78% 0.5 mph NNE0.8 kmh NNE 1.3 mph2.1 kmh 29.98 in1015.2 mb 0.00 in0.0 mm 0.00 in0.0 mm 0.00 in0.0 mm
04:15 AM 52.2°F11.2°C 45.5°F7.5°C 78% 0.3 mph NNE0.5 kmh NNE 1.3 mph2.1 kmh 29.98 in1015.2 mb 0.00 in0.0 mm 0.00 in0.0 mm 0.00 in0.0 mm
04:10 AM 52.2°F11.2°C 45.2°F7.3°C 77% 0.1 mph NNE0.2 kmh NNE 0.9 mph1.4 kmh 29.98 in1015.2 mb 0.00 in0.0 mm 0.00 in0.0 mm 0.00 in0.0 mm
04:05 AM 52.2°F11.2°C 45.2°F7.3°C 77% 0.3 mph NE0.5 kmh NE 1.3 mph2.1 kmh 29.98 in1015.2 mb 0.00 in0.0 mm 0.00 in0.0 mm 0.00 in0.0 mm
04:00 AM 52.2°F11.2°C 45.2°F7.3°C 77% 0.8 mph NE1.3 kmh NE 1.6 mph2.6 kmh 29.98 in1015.2 mb 0.00 in0.0 mm 0.00 in0.0 mm 0.00 in0.0 mm
03:55 AM 52.3°F11.3°C 45.3°F7.4°C 77% 0.9 mph NNE1.4 kmh NNE 1.6 mph2.6 kmh 29.98 in1015.2 mb 0.00 in0.0 mm 0.00 in0.0 mm 0.00 in0.0 mm
03:50 AM 52.3°F11.3°C 45.3°F7.4°C 77% 0.3 mph NNE0.5 kmh NNE 1.3 mph2.1 kmh 29.98 in1015.2 mb 0.00 in0.0 mm 0.00 in0.0 mm 0.00 in0.0 mm
03:45 AM 52.5°F11.4°C 45.5°F7.5°C 77% Calm Calm -- 29.98 in1015.2 mb 0.00 in0.0 mm 0.00 in0.0 mm 0.00 in0.0 mm
03:40 AM 52.5°F11.4°C 45.5°F7.5°C 77% Calm Calm 1.1 mph1.8 kmh 29.98 in1015.2 mb 0.00 in0.0 mm 0.00 in0.0 mm 0.00 in0.0 mm
03:35 AM 52.5°F11.4°C 45.5°F7.5°C 77% 0.1 mph SE0.2 kmh SE 1.6 mph2.6 kmh 29.98 in1015.2 mb 0.00 in0.0 mm 0.00 in0.0 mm 0.00 in0.0 mm
03:30 AM 52.5°F11.4°C 45.5°F7.5°C 77% 0.3 mph ESE0.5 kmh ESE 2.0 mph3.2 kmh 29.98 in1015.2 mb 0.00 in0.0 mm 0.00 in0.0 mm 0.00 in0.0 mm
03:25 AM 52.5°F11.4°C 45.5°F7.5°C 77% 0.5 mph ENE0.8 kmh ENE 2.0 mph3.2 kmh 29.98 in1015.2 mb 0.00 in0.0 mm 0.00 in0.0 mm 0.00 in0.0 mm
03:20 AM 52.7°F11.5°C 45.7°F7.6°C 77% 0.7 mph E1.1 kmh E 2.9 mph4.7 kmh 29.98 in1015.2 mb 0.00 in0.0 mm 0.00 in0.0 mm 0.00 in0.0 mm
03:15 AM 52.7°F11.5°C 45.7°F7.6°C 77% 0.9 mph E1.4 kmh E 2.9 mph4.7 kmh 29.98 in1015.2 mb 0.00 in0.0 mm 0.00 in0.0 mm 0.00 in0.0 mm
03:10 AM 52.9°F11.6°C 45.9°F7.7°C 77% 0.9 mph E1.4 kmh E 2.2 mph3.5 kmh 29.98 in1015.2 mb 0.00 in0.0 mm 0.00 in0.0 mm 0.00 in0.0 mm
03:05 AM 52.9°F11.6°C 45.9°F7.7°C 77% 0.8 mph ENE1.3 kmh ENE 2.0 mph3.2 kmh 29.98 in1015.2 mb 0.00 in0.0 mm 0.00 in0.0 mm 0.00 in0.0 mm
03:00 AM 52.9°F11.6°C 45.9°F7.7°C 77% 1.1 mph NE1.8 kmh NE 2.5 mph4.0 kmh 29.98 in1015.2 mb 0.00 in0.0 mm 0.00 in0.0 mm 0.00 in0.0 mm
02:55 AM 52.9°F11.6°C 45.5°F7.5°C 76% 1.4 mph NE2.3 kmh NE 3.8 mph6.1 kmh 29.99 in1015.6 mb 0.00 in0.0 mm 0.00 in0.0 mm 0.00 in0.0 mm
02:50 AM 52.9°F11.6°C 45.5°F7.5°C 76% 1.3 mph NE2.1 kmh NE 3.8 mph6.1 kmh 29.98 in1015.2 mb 0.00 in0.0 mm 0.00 in0.0 mm 0.00 in0.0 mm
02:45 AM 53.2°F11.8°C 45.9°F7.7°C 76% 0.8 mph NE1.3 kmh NE 2.7 mph4.3 kmh 29.98 in1015.2 mb 0.00 in0.0 mm 0.00 in0.0 mm 0.00 in0.0 mm
02:40 AM 53.2°F11.8°C 45.9°F7.7°C 76% 0.6 mph NE1.0 kmh NE 2.9 mph4.7 kmh 29.99 in1015.6 mb 0.00 in0.0 mm 0.00 in0.0 mm 0.00 in0.0 mm
02:35 AM 53.2°F11.8°C 45.9°F7.7°C 76% 0.6 mph NE1.0 kmh NE 2.9 mph4.7 kmh 29.99 in1015.6 mb 0.00 in0.0 mm 0.00 in0.0 mm 0.00 in0.0 mm
02:30 AM 53.4°F11.9°C 46.0°F7.8°C 76% 0.4 mph NE0.6 kmh NE 2.7 mph4.3 kmh 29.99 in1015.6 mb 0.00 in0.0 mm 0.00 in0.0 mm 0.00 in0.0 mm
02:25 AM 53.4°F11.9°C 46.0°F7.8°C 76% 0.3 mph NNE0.5 kmh NNE 2.0 mph3.2 kmh 29.99 in1015.6 mb 0.00 in0.0 mm 0.00 in0.0 mm 0.00 in0.0 mm
02:20 AM 53.6°F12.0°C 46.2°F7.9°C 76% 0.4 mph NNE0.6 kmh NNE 2.2 mph3.5 kmh 29.99 in1015.6 mb 0.00 in0.0 mm 0.00 in0.0 mm 0.00 in0.0 mm
02:15 AM 53.8°F12.1°C 46.7°F8.2°C 77% 0.3 mph NNE0.5 kmh NNE 2.2 mph3.5 kmh 29.99 in1015.6 mb 0.00 in0.0 mm 0.00 in0.0 mm 0.00 in0.0 mm
02:10 AM 53.8°F12.1°C 46.7°F8.2°C 77% 0.3 mph N0.5 kmh N 2.2 mph3.5 kmh 29.99 in1015.6 mb 0.00 in0.0 mm 0.00 in0.0 mm 0.00 in0.0 mm
02:05 AM 54.0°F12.2°C 46.9°F8.3°C 77% 0.2 mph N0.3 kmh N 2.2 mph3.5 kmh 29.99 in1015.6 mb 0.00 in0.0 mm 0.00 in0.0 mm 0.00 in0.0 mm
02:00 AM 54.1°F12.3°C 47.1°F8.4°C 77% 0.3 mph E0.5 kmh E 4.0 mph6.4 kmh 29.99 in1015.6 mb 0.00 in0.0 mm 0.00 in0.0 mm 0.00 in0.0 mm
01:55 AM 54.3°F12.4°C 47.3°F8.5°C 77% 0.2 mph E0.3 kmh E 4.0 mph6.4 kmh 29.99 in1015.6 mb 0.00 in0.0 mm 0.00 in0.0 mm 0.00 in0.0 mm
01:50 AM 54.3°F12.4°C 47.3°F8.5°C 77% Calm Calm 1.1 mph1.8 kmh 29.99 in1015.6 mb 0.00 in0.0 mm 0.00 in0.0 mm 0.00 in0.0 mm
01:45 AM 54.3°F12.4°C 47.3°F8.5°C 77% Calm Calm -- 30.00 in1015.9 mb 0.00 in0.0 mm 0.00 in0.0 mm 0.00 in0.0 mm
01:40 AM 54.5°F12.5°C 47.4°F8.6°C 77% 0.1 mph NNE0.2 kmh NNE 1.1 mph1.8 kmh 30.00 in1015.9 mb 0.00 in0.0 mm 0.00 in0.0 mm 0.00 in0.0 mm
01:35 AM 54.7°F12.6°C 47.6°F8.7°C 77% 0.1 mph NNE0.2 kmh NNE 1.1 mph1.8 kmh 30.00 in1015.9 mb 0.00 in0.0 mm 0.00 in0.0 mm 0.00 in0.0 mm
01:30 AM 54.7°F12.6°C 47.3°F8.5°C 76% Calm Calm -- 30.00 in1015.9 mb 0.00 in0.0 mm 0.00 in0.0 mm 0.00 in0.0 mm
01:25 AM 55.0°F12.8°C 47.6°F8.7°C 76% 0.1 mph N0.2 kmh N 2.0 mph3.2 kmh 30.00 in1015.9 mb 0.00 in0.0 mm 0.00 in0.0 mm 0.00 in0.0 mm
01:20 AM 55.0°F12.8°C 47.6°F8.7°C 76% 0.1 mph NNE0.2 kmh NNE 2.0 mph3.2 kmh 30.00 in1015.9 mb 0.00 in0.0 mm 0.00 in0.0 mm 0.00 in0.0 mm
01:15 AM 55.2°F12.9°C 47.8°F8.8°C 76% Calm Calm 0.9 mph1.4 kmh 30.00 in1015.9 mb 0.00 in0.0 mm 0.00 in0.0 mm 0.00 in0.0 mm
01:10 AM 55.2°F12.9°C 47.8°F8.8°C 76% Calm Calm -- 30.00 in1015.9 mb 0.00 in0.0 mm 0.00 in0.0 mm 0.00 in0.0 mm
01:05 AM 55.4°F13.0°C 48.0°F8.9°C 76% Calm Calm -- 30.00 in1015.9 mb 0.00 in0.0 mm 0.00 in0.0 mm 0.00 in0.0 mm
01:00 AM 55.6°F13.1°C 48.1°F8.9°C 76% Calm Calm -- 30.00 in1015.9 mb 0.00 in0.0 mm 0.00 in0.0 mm 0.00 in0.0 mm
12:55 AM 55.6°F13.1°C 48.1°F8.9°C 76% 0.1 mph NE0.2 kmh NE 1.3 mph2.1 kmh 30.00 in1015.9 mb 0.00 in0.0 mm 0.00 in0.0 mm 0.00 in0.0 mm
12:50 AM 55.8°F13.2°C 48.3°F9.1°C 76% 0.1 mph NE0.2 kmh NE 2.5 mph4.0 kmh 30.00 in1015.9 mb 0.00 in0.0 mm 0.00 in0.0 mm 0.00 in0.0 mm
12:45 AM 55.9°F13.3°C 48.5°F9.2°C 76% 0.2 mph ENE0.3 kmh ENE 2.5 mph4.0 kmh 30.00 in1015.9 mb 0.00 in0.0 mm 0.00 in0.0 mm 0.00 in0.0 mm
12:40 AM 56.1°F13.4°C 48.7°F9.3°C 76% 0.8 mph NNE1.3 kmh NNE 3.6 mph5.8 kmh 30.00 in1015.9 mb 0.00 in0.0 mm 0.00 in0.0 mm 0.00 in0.0 mm
12:35 AM 56.1°F13.4°C 48.7°F9.3°C 76% 1.5 mph NNE2.4 kmh NNE 3.8 mph6.1 kmh 30.00 in1015.9 mb 0.00 in0.0 mm 0.00 in0.0 mm 0.00 in0.0 mm
12:30 AM 56.3°F13.5°C 48.8°F9.3°C 76% 1.6 mph N2.6 kmh N 3.8 mph6.1 kmh 29.99 in1015.6 mb 0.00 in0.0 mm 0.00 in0.0 mm 0.00 in0.0 mm
12:25 AM 56.5°F13.6°C 49.0°F9.4°C 76% 1.2 mph N1.9 kmh N 2.9 mph4.7 kmh 29.99 in1015.6 mb 0.00 in0.0 mm 0.00 in0.0 mm 0.00 in0.0 mm
12:20 AM 56.7°F13.7°C 48.8°F9.3°C 75% 0.9 mph N1.4 kmh N 2.7 mph4.3 kmh 29.99 in1015.6 mb 0.00 in0.0 mm 0.00 in0.0 mm 0.00 in0.0 mm
12:15 AM 56.8°F13.8°C 49.0°F9.4°C 75% 0.9 mph N1.4 kmh N 2.9 mph4.7 kmh 30.00 in1015.9 mb 0.00 in0.0 mm 0.00 in0.0 mm 0.00 in0.0 mm
12:10 AM 56.8°F13.8°C 49.0°F9.4°C 75% 1.3 mph NNE2.1 kmh NNE 5.1 mph8.2 kmh 30.00 in1015.9 mb 0.00 in0.0 mm 0.00 in0.0 mm 0.00 in0.0 mm
12:05 AM 57.0°F13.9°C 49.2°F9.6°C 75% 1.3 mph NNE2.1 kmh NNE 5.1 mph8.2 kmh 30.00 in1015.9 mb 0.00 in0.0 mm 0.00 in0.0 mm 0.00 in0.0 mm
12:00 AM 57.0°F13.9°C 49.2°F9.6°C 75% 1.8 mph NE2.9 kmh NE 6.0 mph9.7 kmh 30.00 in1015.9 mb 0.00 in0.0 mm 0.00 in0.0 mm 0.00 in0.0 mm